4TX2 weather

Stage Coach Hills Airport
Keller, Texas, United States

Public forecast

Using degrees Fahrenheit for public forecast. Weather courtesy of forecast.io.

METAR (pilot weather report)

Closest report is Fort Worth Alliance Airport, 4.5 nm (8.3 km) WNW. Retrieved 2019/07/17 02:53 UTC (59 minutes ago):

KAFW 170253Z 17009KT 10SM SCT250 32/21 A2993 RMK AO2 SLP117 T03170211 53010 $

TAF (pilot weather forecast)

Forecast is more than 12 hours old.

Closest forecast is Fort Worth Alliance Airport, 4.5 nm (8.3 km) WNW. Retrieved 2019/07/16 00:36 UTC (1 day ago):

TAF KAFW 162335Z 1700/1724 18012KT P6SM FEW060 SCT250